Impacts METAR Board
IDs:

KEWR - Newark Intl, NJ, US

Updated at: 1000 UTC 16 Aug 2018
Potential Impact None Slight Moderate High
Time 15/22Z 15/23Z 16/00Z 16/01Z 16/02Z 16/03Z 16/04Z 16/05Z 16/06Z 16/07Z 16/08Z 16/09Z 16/10Z
Temp88 87 85 84 83 82 81 80 76 75 77 77 75
Dewpt66 67 68 68 69 69 69 69 69 69 70 69 69
Altim29.91 29.91 29.93 29.94 29.97 29.97 29.97 29.98 29.98 29.99 29.99 30.00 30.02
VIS10 10 10 10 10 10 10 10 10 10 10 10 10
CIG250 250 250 250 250 250 -- -- 250 250 250 250 250
CoverBKNBKNBKNBKNBKNBKNSCTSCTBKNBKNBKNBKNBKN
FltCatVFRVFRVFRVFRVFRVFRVFRVFRVFRVFRVFRVFRVFR
WX--------------------------
WDir2402502402402502602602502202202502500
WSpd11 10 9 12 9 8 8 8 5 5 4 4 0
WGst17 -- -- -- -- -- -- -- -- -- -- -- --
Raw hourly METARs
KEWR 152151Z 24011G17KT 10SM SCT055 BKN250 31/19 A2991 RMK AO2 SLP126 T03110189
KEWR 152251Z 25010KT 10SM SCT055 BKN250 31/19 A2991 RMK AO2 SLP129 T03060194
KEWR 152351Z 24009KT 10SM SCT065 SCT090 BKN250 29/20 A2993 RMK AO2 SLP135 T02940200 10322 20294 53010
KEWR 160051Z 24012KT 10SM FEW065 SCT090 BKN250 29/20 A2994 RMK AO2 SLP140 T02890200
KEWR 160151Z 25009KT 10SM FEW060 FEW100 BKN250 28/21 A2997 RMK AO2 SLP147 T02830206
KEWR 160251Z 26008KT 10SM FEW200 BKN250 28/21 A2997 RMK AO2 SLP147 T02780206 51012
KEWR 160351Z 26008KT 10SM SCT250 27/21 A2997 RMK AO2 SLP149 T02720206
KEWR 160451Z 25008KT 10SM SCT250 27/21 A2998 RMK AO2 SLP151 T02670206 403220206
KEWR 160551Z 22005KT 10SM BKN250 24/21 A2998 RMK AO2 SLP151 T02440206 10294 20244 51004
KEWR 160651Z 22005KT 10SM BKN250 24/21 A2999 RMK AO2 SLP154 T02390206
KEWR 160751Z 25004KT 10SM BKN250 25/21 A2999 RMK AO2 SLP154 T02500211
KEWR 160851Z 25004KT 10SM BKN250 25/21 A3000 RMK AO2 SLP158 T02500206 53007
KEWR 160951Z 00000KT 10SM FEW200 BKN250 24/21 A3002 RMK AO2 SLP164 T02390206



Page loaded:  10:25 UTC  |   03:25 AM Pacific  |   04:25 AM Mountain  |   05:25 AM Central  |   06:25 AM Eastern

 

ADVISORIES

FORECASTS

FORECASTS

OBSERVATIONS

USER TOOLS

ABOUT US